Flight Track Log - Related Links

Times and Time Zones

All times are in EDT time to prevent confusion due to time zone crossing. See the N789EX flight status page for this flight to view local times or setup timezone preferences in your user account.


Time Position Orientation Groundspeed Altitude Reporting Facility
EDT Latitude Longitude Course Direction KTS MPH feet Rate Location/Type
Tue 11:50:16 AM 47.4829 -122.2570 146° Southeast 222 255 2,100  Level FlightAware ADS-B
Tue 11:50:31 AM 47.4698 -122.2440 146° Southeast 233 268 2,700 2,800 Climbing FlightAware ADS-B
Tue 11:50:46 AM 47.4559 -122.2310 146° Southeast 240 276 3,500 2,786 Climbing FlightAware ADS-B
Tue 11:50:59 AM 47.4431 -122.2180 146° Southeast 253 291 4,000 2,609 Climbing FlightAware ADS-B
Tue 11:51:09 AM 47.4338 -122.2090 147° Southeast 258 297 4,500 3,200 Climbing FlightAware ADS-B
Tue 11:51:14 AM 47.4289 -122.2050 151° Southeast 259 298 4,800 3,750 Climbing FlightAware ADS-B
Tue 11:51:17 AM 47.4250 -122.2020 155° Southeast 260 299 5,000 3,429 Climbing FlightAware ADS-B
Tue 11:51:21 AM 47.4211 -122.2000 161° South 262 302 5,200 2,571 Climbing FlightAware ADS-B
Tue 11:51:24 AM 47.4174 -122.1980 165° South 264 304 5,300 2,571 Climbing FlightAware ADS-B
Tue 11:51:28 AM 47.4128 -122.1970 170° South 265 305 5,500 3,000 Climbing FlightAware ADS-B
Tue 11:51:34 AM 47.4052 -122.1960 173° South 268 308 5,800 2,857 Climbing FlightAware ADS-B
Tue 11:51:49 AM 47.3860 -122.1930 175° South 280 322 6,500 2,800 Climbing FlightAware ADS-B
Tue 11:52:04 AM 47.3657 -122.1900 174° South 290 334 7,200 2,903 Climbing FlightAware ADS-B
Tue 11:52:20 AM 47.3451 -122.1870 174° South 295 339 8,000 3,400 Climbing FlightAware ADS-B
Tue 11:52:34 AM 47.3259 -122.1840 173° South 293 337 8,900 3,310 Climbing FlightAware ADS-B
Tue 11:52:49 AM 47.3048 -122.1800 173° South 302 348 9,600 2,267 Climbing FlightAware ADS-B
Tue 11:53:19 AM 47.2614 -122.1720 173° South 332 382 10,600 1,700 Climbing FlightAware ADS-B
Tue 11:53:49 AM 47.2127 -122.1630 173° South 368 423 11,300 1,920 Climbing FlightAware ADS-B
Tue 11:54:09 AM 47.1840 -122.1581 173° South 376 433 12,200 2,710 Climbing FlightAware ADS-B (CYVR)
Tue 11:54:20 AM 47.1605 -122.1540 173° South 378 435 12,700 2,923 Climbing FlightAware ADS-B
Tue 11:54:48 AM 47.1107 -122.1447 173° South 386 444 14,100 3,000 Climbing FlightAware ADS-B (CYVR)
Tue 11:54:50 AM 47.1079 -122.1440 173° South 387 445 14,200 2,438 Climbing FlightAware ADS-B
Tue 11:55:20 AM 47.0528 -122.1370 176° South 398 458 15,400 2,500 Climbing FlightAware ADS-B
Tue 11:55:50 AM 46.9964 -122.1320 176° South 409 471 16,700 2,449 Climbing FlightAware ADS-B
Tue 11:56:09 AM 46.9648 -122.1293 177° South 414 476 17,400 2,323 Climbing FlightAware ADS-B (CYVR)
Tue 11:56:21 AM 46.9387 -122.1270 177° South 418 481 17,900 2,368 Climbing FlightAware ADS-B
Tue 11:56:47 AM 46.8881 -122.1225 177° South 424 488 18,900 2,400 Climbing FlightAware ADS-B (CYVR)
Tue 11:56:51 AM 46.8799 -122.1220 176° South 424 488 19,100 2,471 Climbing FlightAware ADS-B
Tue 11:57:21 AM 46.8209 -122.1170 176° South 428 493 20,300 2,400 Climbing FlightAware ADS-B
Tue 11:57:31 AM 46.8422 -122.1185 177° South 427 491 20,700 2,200 Climbing FlightAware ADS-B (CYVR)
Tue 11:57:51 AM 46.7603 -122.1110 176° South 436 502 21,400 1,950 Climbing FlightAware ADS-B
Tue 11:58:11 AM 46.7219 -122.1073 176° South 442 509 22,000 1,600 Climbing FlightAware ADS-B
Tue 11:58:21 AM 46.6992 -122.1050 177° South 448 516 22,200 1,105 Climbing FlightAware ADS-B
Tue 11:58:49 AM 46.6437 -122.1004 177° South 463 533 22,700 1,161 Climbing FlightAware ADS-B (CYVR)
Tue 11:58:52 AM 46.6351 -122.1000 177° South 465 535 22,800 1,273 Climbing FlightAware ADS-B
Tue 11:59:22 AM 46.5695 -122.0940 177° South 481 554 23,400 1,385 Climbing FlightAware ADS-B
Tue 11:59:31 AM 46.5490 -122.0922 176° South 484 557 23,700 1,548 Climbing FlightAware ADS-B
Tue 11:59:53 AM 46.4999 -122.0880 176° South 491 565 24,200 1,579 Climbing FlightAware ADS-B
Tue 12:00:09 PM 46.4653 -122.0846 176° South 496 571 24,700 1,742 Climbing FlightAware ADS-B
Tue 12:00:24 PM 46.4271 -122.0810 176° South 499 574 25,100 1,650 Climbing FlightAware ADS-B
Tue 12:00:49 PM 46.4474 -122.0830 176° South 505 581 25,800 1,742 Climbing FlightAware ADS-B
Tue 12:00:55 PM 46.3570 -122.0750 176° South 505 581 26,000 1,667 Climbing FlightAware ADS-B
Tue 12:01:25 PM 46.2868 -122.0690 177° South 510 587 26,800 1,714 Climbing FlightAware ADS-B
Tue 12:01:30 PM 46.2816 -122.0681 177° South 511 588 27,000 1,600 Climbing FlightAware ADS-B
Tue 12:01:55 PM 46.2139 -122.0620 177° South 515 593 27,600 1,500 Climbing FlightAware ADS-B
Tue 12:02:10 PM 46.1786 -122.0591 177° South 517 595 28,000 1,548 Climbing FlightAware ADS-B
Tue 12:02:26 PM 46.1418 -122.0560 176° South 519 597 28,400 1,688 Climbing FlightAware ADS-B
Tue 12:02:42 PM 46.1044 -122.0526 177° South 521 600 28,900 1,400 Climbing FlightAware ADS-B
Tue 12:02:56 PM 46.0688 -122.0490 176° South 523 602 29,100 1,364 Climbing FlightAware ADS-B
Tue 12:03:26 PM 45.9957 -122.0430 177° South 526 605 29,900 1,412 Climbing FlightAware ADS-B
Tue 12:03:30 PM 45.9933 -122.0428 177° South 526 605 29,900 1,200 Level FlightAware ADS-B
Tue 12:03:56 PM 45.9226 -122.0370 177° South 530 610 30,500 1,317 Climbing FlightAware ADS-B
Tue 12:04:11 PM 45.8908 -122.0339 176° South 532 612 30,800 1,000 Climbing FlightAware ADS-B
Tue 12:04:26 PM 45.8489 -122.0300 176° South 536 617 31,000 316 Climbing FlightAware ADS-B
Tue 12:04:49 PM 45.7953 -122.0255 177° South 550 633 31,000  Level FlightAware ADS-B
Tue 12:04:57 PM 45.7728 -122.0240 176° South 554 638 31,000  Level FlightAware ADS-B
Tue 12:05:27 PM 45.6942 -122.0170 177° South 565 650 31,000  Level FlightAware ADS-B
Tue 12:05:31 PM 45.6884 -122.0162 177° South 566 651 31,000  Level FlightAware ADS-B
Tue 12:05:57 PM 45.6147 -122.0100 176° South 568 654 31,000  Level FlightAware ADS-B
Tue 12:06:11 PM 45.5895 -122.0075 177° South 568 654 31,000  Level FlightAware ADS-B
Tue 12:06:27 PM 45.5360 -122.0030 176° South 568 654 31,000  Level FlightAware ADS-B
Tue 12:06:51 PM 45.4874 -121.9986 177° South 566 651 31,000  Level FlightAware ADS-B
Tue 12:06:58 PM 45.4566 -121.9960 177° South 566 651 31,000  Level FlightAware ADS-B
Tue 12:07:28 PM 45.3783 -121.9890 177° South 565 650 31,000  Level FlightAware ADS-B
Tue 12:07:31 PM 45.3768 -121.9890 177° South 565 650 31,000  Level FlightAware ADS-B
Tue 12:07:58 PM 45.2992 -121.9820 177° South 563 648 31,000  Level FlightAware ADS-B
Tue 12:08:10 PM 45.2686 -121.9798 177° South 562 647 31,000  Level FlightAware ADS-B
Tue 12:08:37 PM 45.1971 -121.9740 177° South 562 647 31,000  Level FlightAware ADS-B
Tue 12:08:51 PM 45.1620 -121.9707 177° South 559 643 31,000  Level FlightAware ADS-B
Tue 12:09:20 PM 45.0863 -121.9640 176° South 557 641 31,000  Level FlightAware ADS-B
Tue 12:09:31 PM 45.0601 -121.9622 177° South 556 640 31,000  Level FlightAware ADS-B
Tue 12:10:11 PM 44.9575 -121.9536 177° South 552 635 31,000  Level FlightAware ADS-B
Tue 12:10:50 PM 44.8623 -121.9456 177° South 551 634 31,000  Level FlightAware ADS-B
Tue 12:11:31 PM 44.7536 -121.9365 177° South 550 633 31,000  Level FlightAware ADS-B
Tue 12:12:11 PM 44.6521 -121.9280 177° South 549 632 31,000  Level FlightAware ADS-B
Tue 12:12:51 PM 44.5529 -121.9197 177° South 547 629 31,000  Level FlightAware ADS-B
Tue 12:13:31 PM 44.4510 -121.9113 177° South 546 628 31,000  Level FlightAware ADS-B
Tue 12:14:11 PM 44.3512 -121.9030 177° South 545 627 31,000  Level FlightAware ADS-B
Tue 12:14:51 PM 44.2516 -121.8948 177° South 547 629 31,000  Level FlightAware ADS-B
Tue 12:15:31 PM 44.1834 -121.8891 177° South 545 627 31,000  Level FlightAware ADS-B
Tue 12:16:11 PM 44.0528 -121.8782 177° South 542 624 31,000 -152 Level FlightAware ADS-B
Tue 12:16:50 PM 43.9579 -121.8705 177° South 541 623 30,800 -779 Descending FlightAware ADS-B
Tue 12:17:28 PM 43.8571 -121.8623 177° South 540 621 30,000 -1,259 Descending FlightAware ADS-B
Tue 12:18:11 PM 43.7489 -121.8535 177° South 541 623 29,100 -496 Descending FlightAware ADS-B
Tue 12:19:29 PM 43.5647 -121.8369 177° South 540 621 29,000 -43 Descending Seattle Center
Tue 12:20:30 PM 43.4142 -121.8253 177° South 540 621 29,000  Level Seattle Center
Tue 12:21:31 PM 43.2650 -121.8133 177° South 540 621 29,000  Level Seattle Center
Tue 12:22:32 PM 43.1144 -121.8014 177° South 541 623 29,000  Level Seattle Center
Tue 12:23:33 PM 42.9644 -121.7906 177° South 541 623 29,000  Level Seattle Center
Tue 12:24:34 PM 42.8147 -121.7783 177° South 541 623 29,000  Level Seattle Center
Tue 12:25:35 PM 42.6658 -121.7669 177° South 537 618 29,000  Level Seattle Center
Tue 12:26:36 PM 42.5164 -121.7550 177° South 537 618 29,000  Level Seattle Center
Tue 12:27:37 PM 42.3647 -121.7444 177° South 539 620 29,000  Level Seattle Center
Tue 12:28:38 PM 42.2119 -121.7322 177° South 543 625 29,000  Level Seattle Center
Tue 12:29:39 PM 42.0628 -121.7511 185° South 530 610 29,000  Level Seattle Center
Tue 12:30:40 PM 41.9169 -121.7883 191° South 525 604 29,000  Level Seattle Center
Tue 12:31:41 PM 41.7733 -121.8258 191° South 521 600 29,000  Level Seattle Center
Tue 12:32:42 PM 41.6289 -121.8628 191° South 521 600 29,000  Level Seattle Center
Tue 12:33:42 PM 41.4850 -121.8992 191° South 523 602 29,000  Level Seattle Center
Tue 12:38:59 PM 40.7303 -121.8211 166° South 545 627 29,000 -380 Level FlightAware ADS-B
Tue 12:42:07 PM 40.2599 -121.6771 167° South 524 603 25,800 -1,057 Descending FlightAware ADS-B
Tue 12:42:46 PM 40.1608 -121.6473 167° South 520 598 25,000 -1,469 Descending FlightAware ADS-B
Tue 12:43:45 PM 40.0238 -121.6063 167° South 504 580 23,400 -1,212 Descending FlightAware ADS-B
Tue 12:44:25 PM 39.9401 -121.5815 167° South 499 574 23,000 -1,333 Descending FlightAware ADS-B
Tue 12:45:06 PM 39.8410 -121.5702 178° South 487 560 21,600 -2,148 Descending FlightAware ADS-B
Tue 12:45:46 PM 39.7499 -121.5676 178° South 470 541 20,100 -2,628 Descending FlightAware ADS-B
Tue 12:47:07 PM 39.5813 -121.5270 165° South 455 524 16,300 -2,600 Descending FlightAware ADS-B
Tue 12:47:46 PM 39.5085 -121.5020 165° South 441 507 14,900 -2,127 Descending FlightAware ADS-B
Tue 12:48:26 PM 39.4257 -121.4733 164° South 433 498 13,500 -1,966 Descending FlightAware ADS-B
Tue 12:49:45 PM 39.2783 -121.4110 153° Southeast 399 459 11,000 -1,600 Descending FlightAware ADS-B
Tue 12:50:26 PM 39.2146 -121.3691 152° Southeast 370 426 10,300 -675 Descending FlightAware ADS-B
Tue 12:51:05 PM 39.1591 -121.3322 152° Southeast 329 379 10,100 -300 Descending FlightAware ADS-B
Tue 12:51:46 PM 39.1062 -121.2968 152° Southeast 296 341 9,900 -581 Descending FlightAware ADS-B
Tue 12:52:07 PM 39.0818 -121.2806 152° Southeast 288 331 9,500 -1,333 Descending FlightAware ADS-B
Tue 12:53:07 PM 39.0111 -121.2345 153° Southeast 284 327 8,100 -1,308 Descending FlightAware ADS-B
Tue 12:53:25 PM 38.9900 -121.2210 153° Southeast 280 322 7,800 -1,077 Descending FlightAware ADS-B
Tue 12:53:46 PM 38.9649 -121.2049 153° Southeast 274 315 7,400 -1,347 Descending FlightAware ADS-B
Tue 12:54:14 PM 38.9218 -121.1771 153° Southeast 265 305 6,700 -1,535 Descending FlightAware ADS-B (KMHR)
Tue 12:54:29 PM 38.9111 -121.1702 154° Southeast 263 303 6,300 -968 Descending FlightAware ADS-B (KMHR)
Tue 12:54:45 PM 38.9002 -121.1634 154° Southeast 262 302 6,200 -1,000 Descending FlightAware ADS-B
Tue 12:55:05 PM 38.8784 -121.1501 154° Southeast 260 299 5,700 -1,317 Descending FlightAware ADS-B
Tue 12:55:26 PM 38.8557 -121.1360 153° Southeast 259 298 5,300 -1,024 Descending FlightAware ADS-B
Tue 12:55:46 PM 38.8347 -121.1236 159° South 252 290 5,000 -1,333 Descending FlightAware ADS-B
Tue 12:55:53 PM 38.8154 -121.1207 184° South 247 284 4,700 -828 Descending FlightAware ADS-B (KMHR)
Tue 12:56:15 PM 38.7875 -121.1231 185° South 248 285 4,600 -682 Descending FlightAware ADS-B (KMHR)
Tue 12:56:37 PM 38.7630 -121.1290 195° South 253 291 4,200 -1,535 Descending FlightAware ADS-B (KMHR)
Tue 12:56:58 PM 38.7389 -121.1382 198° South 256 295 3,500 -1,463 Descending FlightAware ADS-B (KMHR)
Tue 12:57:18 PM 38.7333 -121.1406 199° South 245 282 3,200 -789 Descending FlightAware ADS-B (KMHR)
Tue 12:57:36 PM 38.7044 -121.1530 199° South 224 258 3,000 -375 Descending FlightAware ADS-B (KMHR)
Tue 12:58:06 PM 38.6812 -121.1631 199° South 214 246 2,900 -612 Descending FlightAware ADS-B
Tue 12:58:25 PM 38.6644 -121.1708 199° South 200 230 2,500 -1,050 Descending FlightAware ADS-B
Tue 12:58:46 PM 38.6466 -121.1793 200° South 177 204 2,200 -750 Descending FlightAware ADS-B
Tue 12:59:05 PM 38.6329 -121.1857 200° South 167 192 2,000 -600 Descending FlightAware ADS-B
Tue 12:59:26 PM 38.6187 -121.1946 211° Southwest 157 181 1,800 -600 Descending FlightAware ADS-B
Tue 12:59:45 PM 38.6088 -121.2064 228° Southwest 157 181 1,600 -750 Descending FlightAware ADS-B
Tue 01:00:06 PM 38.5986 -121.2211 229° Southwest 159 183 1,300 -857 Descending FlightAware ADS-B
Tue 01:00:27 PM 38.5893 -121.2360 233° Southwest 160 184 1,000 -923 Descending FlightAware ADS-B
Tue 01:00:45 PM 38.5811 -121.2503 233° Southwest 159 183 700 -789 Descending FlightAware ADS-B
Tue 01:01:05 PM 38.5728 -121.2649 233° Southwest 158 182 500 -750 Descending FlightAware ADS-B
Tue 01:01:25 PM 38.5677 -121.2736 233° Southwest 158 182 200 -471 Descending FlightAware ADS-B
Tue 01:01:56 PM 38.5500 -121.3019 233° Southwest 141 162 100 -65 Descending Oakland Center
Tue 01:02:58 PM 38.5433 -121.3083 217° Southwest 119 137 100  Level Oakland Center

Login

Don't have an account? Register now (free) for customized features, flight alerts, and more!